sensor_id;sensor_type;location;lat;lon;timestamp;P1;durP1;ratioP1;P2;durP2;ratioP2
815;SDS011;25928;51.062;13.752;2023-05-02T00:00:29;10.40;;;9.10;;
815;SDS011;25928;51.062;13.752;2023-05-02T00:02:56;10.70;;;9.70;;
815;SDS011;25928;51.062;13.752;2023-05-02T00:05:21;10.57;;;9.57;;
815;SDS011;25928;51.062;13.752;2023-05-02T00:07:48;10.87;;;9.90;;
815;SDS011;25928;51.062;13.752;2023-05-02T00:10:14;14.43;;;10.43;;
815;SDS011;25928;51.062;13.752;2023-05-02T00:12:41;11.30;;;9.60;;
815;SDS011;25928;51.062;13.752;2023-05-02T00:15:07;11.60;;;9.40;;
815;SDS011;25928;51.062;13.752;2023-05-02T00:17:33;12.33;;;10.17;;
815;SDS011;25928;51.062;13.752;2023-05-02T00:19:58;12.93;;;9.93;;
815;SDS011;25928;51.062;13.752;2023-05-02T00:22:24;10.47;;;9.47;;
815;SDS011;25928;51.062;13.752;2023-05-02T00:24:52;11.20;;;10.10;;
815;SDS011;25928;51.062;13.752;2023-05-02T00:27:23;11.23;;;9.87;;
815;SDS011;25928;51.062;13.752;2023-05-02T00:29:48;10.30;;;9.17;;
815;SDS011;25928;51.062;13.752;2023-05-02T00:32:16;10.40;;;9.40;;
815;SDS011;25928;51.062;13.752;2023-05-02T00:34:42;11.30;;;10.20;;
815;SDS011;25928;51.062;13.752;2023-05-02T00:37:08;13.53;;;10.60;;
815;SDS011;25928;51.062;13.752;2023-05-02T00:39:34;13.40;;;10.40;;
815;SDS011;25928;51.062;13.752;2023-05-02T00:41:59;13.30;;;10.47;;
815;SDS011;25928;51.062;13.752;2023-05-02T00:44:26;12.10;;;10.90;;
815;SDS011;25928;51.062;13.752;2023-05-02T00:46:52;11.17;;;10.17;;
815;SDS011;25928;51.062;13.752;2023-05-02T00:49:18;11.03;;;9.93;;
815;SDS011;25928;51.062;13.752;2023-05-02T00:51:44;12.70;;;11.50;;
815;SDS011;25928;51.062;13.752;2023-05-02T00:54:10;11.57;;;10.30;;
815;SDS011;25928;51.062;13.752;2023-05-02T00:56:37;11.93;;;10.77;;
815;SDS011;25928;51.062;13.752;2023-05-02T00:59:03;12.20;;;10.73;;
815;SDS011;25928;51.062;13.752;2023-05-02T01:12:44;12.10;;;10.70;;
815;SDS011;25928;51.062;13.752;2023-05-02T01:15:31;12.40;;;10.00;;
815;SDS011;25928;51.062;13.752;2023-05-02T01:17:59;11.30;;;10.20;;
815;SDS011;25928;51.062;13.752;2023-05-02T01:20:27;11.27;;;10.13;;
815;SDS011;25928;51.062;13.752;2023-05-02T01:22:57;10.37;;;9.37;;
815;SDS011;25928;51.062;13.752;2023-05-02T01:25:30;11.10;;;10.10;;
815;SDS011;25928;51.062;13.752;2023-05-02T01:30:47;10.90;;;9.80;;
815;SDS011;25928;51.062;13.752;2023-05-02T01:33:15;10.93;;;9.53;;
815;SDS011;25928;51.062;13.752;2023-05-02T01:35:43;11.40;;;10.30;;
815;SDS011;25928;51.062;13.752;2023-05-02T01:38:13;12.60;;;10.17;;
815;SDS011;25928;51.062;13.752;2023-05-02T01:40:41;10.07;;;9.07;;
815;SDS011;25928;51.062;13.752;2023-05-02T01:43:10;10.90;;;9.97;;
815;SDS011;25928;51.062;13.752;2023-05-02T01:45:37;12.27;;;11.17;;
815;SDS011;25928;51.062;13.752;2023-05-02T01:48:04;9.60;;;8.60;;
815;SDS011;25928;51.062;13.752;2023-05-02T01:50:31;9.80;;;8.90;;
815;SDS011;25928;51.062;13.752;2023-05-02T01:52:58;9.83;;;8.43;;
815;SDS011;25928;51.062;13.752;2023-05-02T01:55:25;9.97;;;9.00;;
815;SDS011;25928;51.062;13.752;2023-05-02T01:57:53;10.70;;;9.50;;
815;SDS011;25928;51.062;13.752;2023-05-02T02:00:20;9.17;;;8.27;;
815;SDS011;25928;51.062;13.752;2023-05-02T02:02:48;9.73;;;8.73;;
815;SDS011;25928;51.062;13.752;2023-05-02T02:05:17;10.10;;;9.10;;
815;SDS011;25928;51.062;13.752;2023-05-02T02:07:43;10.13;;;9.20;;
815;SDS011;25928;51.062;13.752;2023-05-02T02:10:10;12.03;;;9.00;;
815;SDS011;25928;51.062;13.752;2023-05-02T02:12:40;8.73;;;7.70;;
815;SDS011;25928;51.062;13.752;2023-05-02T02:15:08;9.00;;;8.20;;
815;SDS011;25928;51.062;13.752;2023-05-02T02:17:53;8.97;;;8.27;;
815;SDS011;25928;51.062;13.752;2023-05-02T02:20:27;9.80;;;8.90;;
815;SDS011;25928;51.062;13.752;2023-05-02T02:22:54;9.90;;;8.83;;
815;SDS011;25928;51.062;13.752;2023-05-02T02:25:21;9.50;;;8.50;;
815;SDS011;25928;51.062;13.752;2023-05-02T02:27:49;10.33;;;9.30;;
815;SDS011;25928;51.062;13.752;2023-05-02T02:30:15;9.77;;;8.90;;
815;SDS011;25928;51.062;13.752;2023-05-02T02:32:41;10.40;;;9.40;;
815;SDS011;25928;51.062;13.752;2023-05-02T02:35:07;9.33;;;8.03;;
815;SDS011;25928;51.062;13.752;2023-05-02T02:37:36;9.03;;;8.33;;
815;SDS011;25928;51.062;13.752;2023-05-02T02:40:28;9.63;;;8.70;;
815;SDS011;25928;51.062;13.752;2023-05-02T02:50:41;9.80;;;8.90;;
815;SDS011;25928;51.062;13.752;2023-05-02T02:53:37;10.20;;;9.20;;
815;SDS011;25928;51.062;13.752;2023-05-02T02:56:35;9.93;;;8.97;;
815;SDS011;25928;51.062;13.752;2023-05-02T03:02:07;10.37;;;9.00;;
815;SDS011;25928;51.062;13.752;2023-05-02T03:04:34;11.00;;;9.10;;
815;SDS011;25928;51.062;13.752;2023-05-02T03:07:02;10.40;;;9.50;;
815;SDS011;25928;51.062;13.752;2023-05-02T03:09:39;10.10;;;9.10;;
815;SDS011;25928;51.062;13.752;2023-05-02T03:12:05;9.23;;;8.37;;
815;SDS011;25928;51.062;13.752;2023-05-02T03:14:30;9.87;;;8.97;;
815;SDS011;25928;51.062;13.752;2023-05-02T03:16:56;9.97;;;8.87;;
815;SDS011;25928;51.062;13.752;2023-05-02T03:19:22;10.23;;;9.30;;
815;SDS011;25928;51.062;13.752;2023-05-02T03:21:47;10.13;;;9.10;;
815;SDS011;25928;51.062;13.752;2023-05-02T03:24:13;10.37;;;9.27;;
815;SDS011;25928;51.062;13.752;2023-05-02T03:26:40;10.60;;;8.77;;
815;SDS011;25928;51.062;13.752;2023-05-02T03:29:05;12.57;;;10.30;;
815;SDS011;25928;51.062;13.752;2023-05-02T03:31:32;9.37;;;8.47;;
815;SDS011;25928;51.062;13.752;2023-05-02T03:33:57;18.23;;;10.27;;
815;SDS011;25928;51.062;13.752;2023-05-02T03:36:23;10.03;;;9.13;;
815;SDS011;25928;51.062;13.752;2023-05-02T03:38:48;10.03;;;8.97;;
815;SDS011;25928;51.062;13.752;2023-05-02T03:41:14;13.10;;;9.90;;
815;SDS011;25928;51.062;13.752;2023-05-02T03:43:40;9.80;;;8.70;;
815;SDS011;25928;51.062;13.752;2023-05-02T03:46:06;10.63;;;9.27;;
815;SDS011;25928;51.062;13.752;2023-05-02T03:48:33;9.87;;;9.07;;
815;SDS011;25928;51.062;13.752;2023-05-02T03:51:00;11.70;;;9.10;;
815;SDS011;25928;51.062;13.752;2023-05-02T03:53:27;9.80;;;8.77;;
815;SDS011;25928;51.062;13.752;2023-05-02T03:55:53;8.37;;;7.57;;
815;SDS011;25928;51.062;13.752;2023-05-02T03:58:19;9.00;;;8.03;;
815;SDS011;25928;51.062;13.752;2023-05-02T04:00:45;11.13;;;8.73;;
815;SDS011;25928;51.062;13.752;2023-05-02T04:03:11;10.17;;;7.83;;
815;SDS011;25928;51.062;13.752;2023-05-02T04:05:36;9.70;;;8.07;;
815;SDS011;25928;51.062;13.752;2023-05-02T04:08:02;8.93;;;8.00;;
815;SDS011;25928;51.062;13.752;2023-05-02T04:10:27;9.07;;;8.03;;
815;SDS011;25928;51.062;13.752;2023-05-02T04:12:53;12.37;;;7.87;;
815;SDS011;25928;51.062;13.752;2023-05-02T04:15:19;8.40;;;7.60;;
815;SDS011;25928;51.062;13.752;2023-05-02T04:17:44;8.47;;;7.67;;
815;SDS011;25928;51.062;13.752;2023-05-02T04:20:11;9.00;;;8.07;;
815;SDS011;25928;51.062;13.752;2023-05-02T04:22:36;8.37;;;7.50;;
815;SDS011;25928;51.062;13.752;2023-05-02T04:25:04;8.50;;;7.70;;
815;SDS011;25928;51.062;13.752;2023-05-02T04:27:30;10.03;;;8.20;;
815;SDS011;25928;51.062;13.752;2023-05-02T04:29:56;9.73;;;7.60;;
815;SDS011;25928;51.062;13.752;2023-05-02T04:32:22;8.43;;;7.60;;
815;SDS011;25928;51.062;13.752;2023-05-02T04:34:48;10.73;;;8.50;;
815;SDS011;25928;51.062;13.752;2023-05-02T04:37:13;8.60;;;7.80;;
815;SDS011;25928;51.062;13.752;2023-05-02T04:39:39;9.30;;;8.00;;
815;SDS011;25928;51.062;13.752;2023-05-02T04:42:04;8.53;;;7.73;;
815;SDS011;25928;51.062;13.752;2023-05-02T04:44:30;8.50;;;7.70;;
815;SDS011;25928;51.062;13.752;2023-05-02T04:46:55;11.80;;;8.73;;
815;SDS011;25928;51.062;13.752;2023-05-02T04:49:21;7.90;;;7.20;;
815;SDS011;25928;51.062;13.752;2023-05-02T04:51:47;8.73;;;7.30;;
815;SDS011;25928;51.062;13.752;2023-05-02T04:54:12;7.80;;;7.10;;
815;SDS011;25928;51.062;13.752;2023-05-02T04:56:38;8.70;;;7.37;;
815;SDS011;25928;51.062;13.752;2023-05-02T04:59:04;7.60;;;6.90;;
815;SDS011;25928;51.062;13.752;2023-05-02T05:01:30;8.50;;;7.03;;
815;SDS011;25928;51.062;13.752;2023-05-02T05:03:55;7.87;;;6.90;;
815;SDS011;25928;51.062;13.752;2023-05-02T05:06:21;14.40;;;7.53;;
815;SDS011;25928;51.062;13.752;2023-05-02T05:08:47;8.27;;;7.20;;
815;SDS011;25928;51.062;13.752;2023-05-02T05:11:13;7.80;;;6.93;;
815;SDS011;25928;51.062;13.752;2023-05-02T05:13:41;6.80;;;6.20;;
815;SDS011;25928;51.062;13.752;2023-05-02T05:16:07;8.27;;;7.47;;
815;SDS011;25928;51.062;13.752;2023-05-02T05:18:33;7.57;;;6.77;;
815;SDS011;25928;51.062;13.752;2023-05-02T05:21:05;8.17;;;7.10;;
815;SDS011;25928;51.062;13.752;2023-05-02T05:23:31;7.80;;;6.50;;
815;SDS011;25928;51.062;13.752;2023-05-02T05:25:57;7.30;;;6.60;;
815;SDS011;25928;51.062;13.752;2023-05-02T05:28:23;8.33;;;6.40;;
815;SDS011;25928;51.062;13.752;2023-05-02T05:30:48;7.83;;;7.13;;
815;SDS011;25928;51.062;13.752;2023-05-02T05:33:15;7.30;;;6.50;;
815;SDS011;25928;51.062;13.752;2023-05-02T05:35:41;8.10;;;6.70;;
815;SDS011;25928;51.062;13.752;2023-05-02T05:38:07;7.87;;;6.87;;
815;SDS011;25928;51.062;13.752;2023-05-02T05:40:32;7.70;;;7.10;;
815;SDS011;25928;51.062;13.752;2023-05-02T05:42:58;13.70;;;7.13;;
815;SDS011;25928;51.062;13.752;2023-05-02T05:45:24;7.20;;;6.60;;
815;SDS011;25928;51.062;13.752;2023-05-02T05:47:49;8.10;;;7.30;;
815;SDS011;25928;51.062;13.752;2023-05-02T05:50:15;12.77;;;7.00;;
815;SDS011;25928;51.062;13.752;2023-05-02T05:52:41;9.53;;;7.10;;
815;SDS011;25928;51.062;13.752;2023-05-02T05:55:06;8.30;;;6.77;;
815;SDS011;25928;51.062;13.752;2023-05-02T05:57:32;10.43;;;8.87;;
815;SDS011;25928;51.062;13.752;2023-05-02T05:59:58;8.67;;;7.43;;
815;SDS011;25928;51.062;13.752;2023-05-02T06:02:24;9.40;;;6.57;;
815;SDS011;25928;51.062;13.752;2023-05-02T06:04:50;9.13;;;7.43;;
815;SDS011;25928;51.062;13.752;2023-05-02T06:07:15;7.47;;;6.63;;
815;SDS011;25928;51.062;13.752;2023-05-02T06:09:41;7.97;;;6.67;;
815;SDS011;25928;51.062;13.752;2023-05-02T06:12:06;8.70;;;6.10;;
815;SDS011;25928;51.062;13.752;2023-05-02T06:14:32;7.67;;;6.03;;
815;SDS011;25928;51.062;13.752;2023-05-02T06:16:58;10.20;;;5.87;;
815;SDS011;25928;51.062;13.752;2023-05-02T06:19:24;10.40;;;6.80;;
815;SDS011;25928;51.062;13.752;2023-05-02T06:21:50;7.00;;;5.77;;
815;SDS011;25928;51.062;13.752;2023-05-02T06:24:15;8.33;;;5.83;;
815;SDS011;25928;51.062;13.752;2023-05-02T06:26:41;6.53;;;5.77;;
815;SDS011;25928;51.062;13.752;2023-05-02T06:29:07;7.17;;;6.20;;
815;SDS011;25928;51.062;13.752;2023-05-02T06:31:32;10.10;;;6.03;;
815;SDS011;25928;51.062;13.752;2023-05-02T06:33:58;6.90;;;5.50;;
815;SDS011;25928;51.062;13.752;2023-05-02T06:36:23;7.53;;;6.07;;
815;SDS011;25928;51.062;13.752;2023-05-02T06:38:49;6.53;;;5.93;;
815;SDS011;25928;51.062;13.752;2023-05-02T06:41:15;10.03;;;7.47;;
815;SDS011;25928;51.062;13.752;2023-05-02T06:43:41;6.67;;;5.60;;
815;SDS011;25928;51.062;13.752;2023-05-02T06:46:07;6.70;;;5.97;;
815;SDS011;25928;51.062;13.752;2023-05-02T06:48:36;8.80;;;6.63;;
815;SDS011;25928;51.062;13.752;2023-05-02T06:51:02;7.10;;;5.90;;
815;SDS011;25928;51.062;13.752;2023-05-02T06:53:28;5.97;;;5.37;;
815;SDS011;25928;51.062;13.752;2023-05-02T06:55:54;5.83;;;5.33;;
815;SDS011;25928;51.062;13.752;2023-05-02T06:58:20;5.80;;;5.20;;
815;SDS011;25928;51.062;13.752;2023-05-02T07:00:47;9.63;;;5.50;;
815;SDS011;25928;51.062;13.752;2023-05-02T07:03:14;5.50;;;5.00;;
815;SDS011;25928;51.062;13.752;2023-05-02T07:05:39;6.47;;;5.53;;
815;SDS011;25928;51.062;13.752;2023-05-02T07:08:05;5.83;;;5.03;;
815;SDS011;25928;51.062;13.752;2023-05-02T07:10:31;7.10;;;5.30;;
815;SDS011;25928;51.062;13.752;2023-05-02T07:12:56;7.07;;;5.93;;
815;SDS011;25928;51.062;13.752;2023-05-02T07:15:22;5.53;;;4.93;;
815;SDS011;25928;51.062;13.752;2023-05-02T07:17:48;5.47;;;4.97;;
815;SDS011;25928;51.062;13.752;2023-05-02T07:20:14;6.13;;;5.43;;
815;SDS011;25928;51.062;13.752;2023-05-02T07:22:40;8.33;;;5.40;;
815;SDS011;25928;51.062;13.752;2023-05-02T07:25:06;6.00;;;5.40;;
815;SDS011;25928;51.062;13.752;2023-05-02T07:27:32;5.93;;;5.30;;
815;SDS011;25928;51.062;13.752;2023-05-02T07:29:57;5.63;;;5.03;;
815;SDS011;25928;51.062;13.752;2023-05-02T07:32:23;5.53;;;5.03;;
815;SDS011;25928;51.062;13.752;2023-05-02T07:34:50;7.27;;;5.53;;
815;SDS011;25928;51.062;13.752;2023-05-02T07:37:20;7.73;;;5.17;;
815;SDS011;25928;51.062;13.752;2023-05-02T07:39:45;8.20;;;6.27;;
815;SDS011;25928;51.062;13.752;2023-05-02T07:42:11;6.03;;;5.40;;
815;SDS011;25928;51.062;13.752;2023-05-02T07:44:37;5.60;;;5.10;;
815;SDS011;25928;51.062;13.752;2023-05-02T07:47:02;5.60;;;5.10;;
815;SDS011;25928;51.062;13.752;2023-05-02T07:49:28;6.30;;;5.63;;
815;SDS011;25928;51.062;13.752;2023-05-02T07:51:55;6.20;;;5.60;;
815;SDS011;25928;51.062;13.752;2023-05-02T07:54:21;6.40;;;5.53;;
815;SDS011;25928;51.062;13.752;2023-05-02T07:56:47;7.63;;;6.17;;
815;SDS011;25928;51.062;13.752;2023-05-02T07:59:13;7.23;;;6.47;;
815;SDS011;25928;51.062;13.752;2023-05-02T08:01:39;10.40;;;5.93;;
815;SDS011;25928;51.062;13.752;2023-05-02T08:04:05;7.40;;;6.70;;
815;SDS011;25928;51.062;13.752;2023-05-02T08:06:31;8.00;;;7.20;;
815;SDS011;25928;51.062;13.752;2023-05-02T08:08:57;7.07;;;6.17;;
815;SDS011;25928;51.062;13.752;2023-05-02T08:11:23;9.20;;;6.20;;
815;SDS011;25928;51.062;13.752;2023-05-02T08:13:49;7.10;;;5.23;;
815;SDS011;25928;51.062;13.752;2023-05-02T08:16:15;7.63;;;6.20;;
815;SDS011;25928;51.062;13.752;2023-05-02T08:18:41;6.83;;;5.87;;
815;SDS011;25928;51.062;13.752;2023-05-02T08:21:07;6.20;;;5.57;;
815;SDS011;25928;51.062;13.752;2023-05-02T08:23:32;9.07;;;5.63;;
815;SDS011;25928;51.062;13.752;2023-05-02T08:25:58;8.47;;;6.43;;
815;SDS011;25928;51.062;13.752;2023-05-02T08:28:24;6.60;;;5.40;;
815;SDS011;25928;51.062;13.752;2023-05-02T08:30:49;6.93;;;5.80;;
815;SDS011;25928;51.062;13.752;2023-05-02T08:33:15;6.00;;;5.47;;
815;SDS011;25928;51.062;13.752;2023-05-02T08:35:41;6.87;;;5.13;;
815;SDS011;25928;51.062;13.752;2023-05-02T08:38:06;6.33;;;5.73;;
815;SDS011;25928;51.062;13.752;2023-05-02T08:40:34;8.07;;;5.87;;
815;SDS011;25928;51.062;13.752;2023-05-02T08:43:01;7.43;;;6.20;;
815;SDS011;25928;51.062;13.752;2023-05-02T08:45:27;6.43;;;5.40;;
815;SDS011;25928;51.062;13.752;2023-05-02T08:48:08;6.47;;;5.83;;
815;SDS011;25928;51.062;13.752;2023-05-02T08:50:38;6.50;;;5.80;;
815;SDS011;25928;51.062;13.752;2023-05-02T08:53:09;7.97;;;5.87;;
815;SDS011;25928;51.062;13.752;2023-05-02T08:55:37;7.53;;;5.97;;
815;SDS011;25928;51.062;13.752;2023-05-02T08:58:05;6.40;;;5.10;;
815;SDS011;25928;51.062;13.752;2023-05-02T09:00:32;6.07;;;4.60;;
815;SDS011;25928;51.062;13.752;2023-05-02T09:05:44;6.40;;;5.17;;
815;SDS011;25928;51.062;13.752;2023-05-02T09:08:14;5.43;;;4.93;;
815;SDS011;25928;51.062;13.752;2023-05-02T09:10:46;5.23;;;4.67;;
815;SDS011;25928;51.062;13.752;2023-05-02T09:13:27;6.50;;;5.17;;
815;SDS011;25928;51.062;13.752;2023-05-02T09:16:01;6.07;;;5.47;;
815;SDS011;25928;51.062;13.752;2023-05-02T09:18:32;6.87;;;5.33;;
815;SDS011;25928;51.062;13.752;2023-05-02T09:21:00;6.47;;;4.83;;
815;SDS011;25928;51.062;13.752;2023-05-02T09:23:35;10.13;;;5.47;;
815;SDS011;25928;51.062;13.752;2023-05-02T09:28:47;6.83;;;5.80;;
815;SDS011;25928;51.062;13.752;2023-05-02T09:31:19;6.60;;;5.60;;
815;SDS011;25928;51.062;13.752;2023-05-02T09:33:46;6.90;;;5.73;;
815;SDS011;25928;51.062;13.752;2023-05-02T09:36:16;7.50;;;5.23;;
815;SDS011;25928;51.062;13.752;2023-05-02T09:38:44;7.63;;;5.90;;
815;SDS011;25928;51.062;13.752;2023-05-02T09:41:12;6.83;;;5.30;;
815;SDS011;25928;51.062;13.752;2023-05-02T09:43:38;8.47;;;5.97;;
815;SDS011;25928;51.062;13.752;2023-05-02T09:46:05;7.87;;;6.73;;
815;SDS011;25928;51.062;13.752;2023-05-02T09:51:20;9.67;;;7.00;;
815;SDS011;25928;51.062;13.752;2023-05-02T09:53:46;9.27;;;8.13;;
815;SDS011;25928;51.062;13.752;2023-05-02T09:56:12;8.47;;;7.50;;
815;SDS011;25928;51.062;13.752;2023-05-02T09:58:38;9.37;;;7.70;;
815;SDS011;25928;51.062;13.752;2023-05-02T10:01:04;10.17;;;8.40;;
815;SDS011;25928;51.062;13.752;2023-05-02T10:03:30;9.70;;;8.70;;
815;SDS011;25928;51.062;13.752;2023-05-02T10:05:56;13.00;;;8.57;;
815;SDS011;25928;51.062;13.752;2023-05-02T10:08:25;11.83;;;9.00;;
815;SDS011;25928;51.062;13.752;2023-05-02T10:10:56;10.30;;;8.87;;
815;SDS011;25928;51.062;13.752;2023-05-02T10:13:24;9.90;;;9.00;;
815;SDS011;25928;51.062;13.752;2023-05-02T10:16:00;10.23;;;8.90;;
815;SDS011;25928;51.062;13.752;2023-05-02T10:18:29;10.00;;;8.87;;
815;SDS011;25928;51.062;13.752;2023-05-02T10:21:00;9.50;;;7.70;;
815;SDS011;25928;51.062;13.752;2023-05-02T10:23:32;11.97;;;9.27;;
815;SDS011;25928;51.062;13.752;2023-05-02T10:25:58;10.63;;;9.53;;
815;SDS011;25928;51.062;13.752;2023-05-02T10:28:25;10.57;;;9.47;;
815;SDS011;25928;51.062;13.752;2023-05-02T10:30:51;12.33;;;9.20;;
815;SDS011;25928;51.062;13.752;2023-05-02T10:33:17;9.97;;;9.00;;
815;SDS011;25928;51.062;13.752;2023-05-02T10:35:45;12.57;;;10.93;;
815;SDS011;25928;51.062;13.752;2023-05-02T10:38:12;10.27;;;9.23;;
815;SDS011;25928;51.062;13.752;2023-05-02T10:40:40;10.90;;;9.80;;
815;SDS011;25928;51.062;13.752;2023-05-02T10:43:12;13.33;;;10.30;;
815;SDS011;25928;51.062;13.752;2023-05-02T10:45:40;13.37;;;8.93;;
815;SDS011;25928;51.062;13.752;2023-05-02T10:48:12;10.40;;;9.33;;
815;SDS011;25928;51.062;13.752;2023-05-02T10:50:43;9.93;;;8.93;;
815;SDS011;25928;51.062;13.752;2023-05-02T10:53:24;10.97;;;9.63;;
815;SDS011;25928;51.062;13.752;2023-05-02T10:56:08;10.43;;;9.40;;
815;SDS011;25928;51.062;13.752;2023-05-02T10:58:35;11.50;;;9.60;;
815;SDS011;25928;51.062;13.752;2023-05-02T11:03:58;12.33;;;11.00;;
815;SDS011;25928;51.062;13.752;2023-05-02T11:06:28;11.97;;;10.83;;
815;SDS011;25928;51.062;13.752;2023-05-02T11:11:45;12.47;;;10.50;;
815;SDS011;25928;51.062;13.752;2023-05-02T11:19:28;13.43;;;12.03;;
815;SDS011;25928;51.062;13.752;2023-05-02T11:24:52;11.43;;;10.23;;
815;SDS011;25928;51.062;13.752;2023-05-02T11:37:52;11.23;;;10.03;;
815;SDS011;25928;51.062;13.752;2023-05-02T11:40:18;11.67;;;10.57;;
815;SDS011;25928;51.062;13.752;2023-05-02T11:42:44;15.33;;;10.83;;
815;SDS011;25928;51.062;13.752;2023-05-02T11:45:11;12.03;;;10.50;;
815;SDS011;25928;51.062;13.752;2023-05-02T11:47:36;11.80;;;9.77;;
815;SDS011;25928;51.062;13.752;2023-05-02T11:50:06;10.97;;;9.67;;
815;SDS011;25928;51.062;13.752;2023-05-02T11:52:37;10.87;;;9.87;;
815;SDS011;25928;51.062;13.752;2023-05-02T11:55:04;10.00;;;9.10;;
815;SDS011;25928;51.062;13.752;2023-05-02T11:57:34;11.13;;;9.87;;
815;SDS011;25928;51.062;13.752;2023-05-02T12:00:00;10.77;;;9.63;;
815;SDS011;25928;51.062;13.752;2023-05-02T12:05:12;12.57;;;10.87;;
815;SDS011;25928;51.062;13.752;2023-05-02T12:07:40;10.90;;;9.90;;
815;SDS011;25928;51.062;13.752;2023-05-02T12:10:10;10.40;;;9.40;;
815;SDS011;25928;51.062;13.752;2023-05-02T12:12:37;12.20;;;9.70;;
815;SDS011;25928;51.062;13.752;2023-05-02T12:15:08;12.03;;;10.83;;
815;SDS011;25928;51.062;13.752;2023-05-02T12:17:45;12.07;;;10.87;;
815;SDS011;25928;51.062;13.752;2023-05-02T12:20:16;11.57;;;10.50;;
815;SDS011;25928;51.062;13.752;2023-05-02T12:22:42;12.43;;;11.20;;
815;SDS011;25928;51.062;13.752;2023-05-02T12:25:08;10.77;;;9.73;;
815;SDS011;25928;51.062;13.752;2023-05-02T12:27:34;10.87;;;9.77;;
815;SDS011;25928;51.062;13.752;2023-05-02T12:30:00;11.60;;;10.40;;
815;SDS011;25928;51.062;13.752;2023-05-02T12:32:29;10.93;;;9.70;;
815;SDS011;25928;51.062;13.752;2023-05-02T12:34:59;12.00;;;10.70;;
815;SDS011;25928;51.062;13.752;2023-05-02T12:37:26;11.13;;;9.80;;
815;SDS011;25928;51.062;13.752;2023-05-02T12:39:52;9.20;;;8.30;;
815;SDS011;25928;51.062;13.752;2023-05-02T12:42:20;9.60;;;8.63;;
815;SDS011;25928;51.062;13.752;2023-05-02T12:44:48;10.40;;;9.07;;
815;SDS011;25928;51.062;13.752;2023-05-02T12:47:16;8.87;;;8.07;;
815;SDS011;25928;51.062;13.752;2023-05-02T12:55:22;11.60;;;10.47;;
815;SDS011;25928;51.062;13.752;2023-05-02T12:57:50;11.93;;;10.83;;
815;SDS011;25928;51.062;13.752;2023-05-02T13:00:23;11.97;;;10.87;;
815;SDS011;25928;51.062;13.752;2023-05-02T13:02:49;10.90;;;9.90;;
815;SDS011;25928;51.062;13.752;2023-05-02T13:05:15;10.40;;;9.50;;
815;SDS011;25928;51.062;13.752;2023-05-02T13:07:42;10.90;;;10.00;;
815;SDS011;25928;51.062;13.752;2023-05-02T13:10:08;11.63;;;10.53;;
815;SDS011;25928;51.062;13.752;2023-05-02T13:12:36;11.47;;;10.37;;
815;SDS011;25928;51.062;13.752;2023-05-02T13:15:05;10.90;;;9.80;;
815;SDS011;25928;51.062;13.752;2023-05-02T13:17:32;10.10;;;9.10;;
815;SDS011;25928;51.062;13.752;2023-05-02T13:19:58;10.90;;;9.90;;
815;SDS011;25928;51.062;13.752;2023-05-02T13:22:25;10.43;;;9.47;;
815;SDS011;25928;51.062;13.752;2023-05-02T13:24:51;11.63;;;10.43;;
815;SDS011;25928;51.062;13.752;2023-05-02T13:27:17;8.27;;;7.53;;
815;SDS011;25928;51.062;13.752;2023-05-02T13:29:43;9.43;;;8.40;;
815;SDS011;25928;51.062;13.752;2023-05-02T13:32:09;8.50;;;7.60;;
815;SDS011;25928;51.062;13.752;2023-05-02T13:34:35;9.13;;;8.30;;
815;SDS011;25928;51.062;13.752;2023-05-02T13:37:01;11.47;;;8.97;;
815;SDS011;25928;51.062;13.752;2023-05-02T13:39:26;9.10;;;8.20;;
815;SDS011;25928;51.062;13.752;2023-05-02T13:41:52;10.70;;;9.77;;
815;SDS011;25928;51.062;13.752;2023-05-02T13:44:17;10.03;;;9.13;;
815;SDS011;25928;51.062;13.752;2023-05-02T13:46:43;10.80;;;9.77;;
815;SDS011;25928;51.062;13.752;2023-05-02T13:49:08;10.97;;;9.90;;
815;SDS011;25928;51.062;13.752;2023-05-02T13:51:34;12.73;;;10.77;;
815;SDS011;25928;51.062;13.752;2023-05-02T13:54:00;12.27;;;11.17;;
815;SDS011;25928;51.062;13.752;2023-05-02T13:56:26;12.10;;;10.90;;
815;SDS011;25928;51.062;13.752;2023-05-02T13:58:52;12.90;;;11.60;;
815;SDS011;25928;51.062;13.752;2023-05-02T14:01:18;12.20;;;10.73;;
815;SDS011;25928;51.062;13.752;2023-05-02T14:03:43;13.10;;;11.30;;
815;SDS011;25928;51.062;13.752;2023-05-02T14:06:09;13.20;;;11.90;;
815;SDS011;25928;51.062;13.752;2023-05-02T14:08:35;13.50;;;12.20;;
815;SDS011;25928;51.062;13.752;2023-05-02T14:11:00;12.70;;;10.83;;
815;SDS011;25928;51.062;13.752;2023-05-02T14:13:26;15.13;;;11.37;;
815;SDS011;25928;51.062;13.752;2023-05-02T14:15:52;13.67;;;12.27;;
815;SDS011;25928;51.062;13.752;2023-05-02T14:18:18;14.00;;;12.50;;
815;SDS011;25928;51.062;13.752;2023-05-02T14:20:43;13.80;;;12.37;;
815;SDS011;25928;51.062;13.752;2023-05-02T14:23:09;11.00;;;9.90;;
815;SDS011;25928;51.062;13.752;2023-05-02T14:25:35;12.30;;;11.20;;
815;SDS011;25928;51.062;13.752;2023-05-02T14:28:01;12.50;;;11.20;;
815;SDS011;25928;51.062;13.752;2023-05-02T14:30:27;12.33;;;11.10;;
815;SDS011;25928;51.062;13.752;2023-05-02T14:32:53;11.73;;;10.50;;
815;SDS011;25928;51.062;13.752;2023-05-02T14:35:20;10.90;;;9.80;;
815;SDS011;25928;51.062;13.752;2023-05-02T14:37:45;11.70;;;10.30;;
815;SDS011;25928;51.062;13.752;2023-05-02T14:40:11;11.20;;;9.90;;
815;SDS011;25928;51.062;13.752;2023-05-02T14:42:38;11.20;;;9.93;;
815;SDS011;25928;51.062;13.752;2023-05-02T14:45:07;10.73;;;9.63;;
815;SDS011;25928;51.062;13.752;2023-05-02T14:47:33;13.10;;;11.17;;
815;SDS011;25928;51.062;13.752;2023-05-02T14:50:01;12.37;;;11.17;;
815;SDS011;25928;51.062;13.752;2023-05-02T14:52:27;11.10;;;9.87;;
815;SDS011;25928;51.062;13.752;2023-05-02T14:54:52;9.60;;;8.60;;
815;SDS011;25928;51.062;13.752;2023-05-02T14:57:18;10.67;;;8.47;;
815;SDS011;25928;51.062;13.752;2023-05-02T14:59:44;8.23;;;7.33;;
815;SDS011;25928;51.062;13.752;2023-05-02T15:02:09;9.90;;;6.83;;
815;SDS011;25928;51.062;13.752;2023-05-02T15:04:35;8.17;;;6.10;;
815;SDS011;25928;51.062;13.752;2023-05-02T15:07:01;7.83;;;6.60;;
815;SDS011;25928;51.062;13.752;2023-05-02T15:09:27;7.20;;;6.50;;
815;SDS011;25928;51.062;13.752;2023-05-02T15:11:54;8.10;;;7.23;;
815;SDS011;25928;51.062;13.752;2023-05-02T15:14:20;7.33;;;6.50;;
815;SDS011;25928;51.062;13.752;2023-05-02T15:16:45;7.40;;;5.93;;
815;SDS011;25928;51.062;13.752;2023-05-02T15:19:11;8.53;;;6.27;;
815;SDS011;25928;51.062;13.752;2023-05-02T15:21:37;6.30;;;5.70;;
815;SDS011;25928;51.062;13.752;2023-05-02T15:24:03;7.00;;;6.30;;
815;SDS011;25928;51.062;13.752;2023-05-02T15:26:30;8.60;;;6.63;;
815;SDS011;25928;51.062;13.752;2023-05-02T15:28:56;7.50;;;6.07;;
815;SDS011;25928;51.062;13.752;2023-05-02T15:31:21;6.43;;;5.43;;
815;SDS011;25928;51.062;13.752;2023-05-02T15:33:48;11.43;;;6.53;;
815;SDS011;25928;51.062;13.752;2023-05-02T15:36:13;6.93;;;5.00;;
815;SDS011;25928;51.062;13.752;2023-05-02T15:38:40;5.90;;;5.30;;
815;SDS011;25928;51.062;13.752;2023-05-02T15:41:07;4.63;;;3.97;;
815;SDS011;25928;51.062;13.752;2023-05-02T15:43:33;4.20;;;3.80;;
815;SDS011;25928;51.062;13.752;2023-05-02T15:46:00;4.67;;;4.20;;
815;SDS011;25928;51.062;13.752;2023-05-02T15:48:26;3.50;;;3.20;;
815;SDS011;25928;51.062;13.752;2023-05-02T15:50:53;3.70;;;2.90;;
815;SDS011;25928;51.062;13.752;2023-05-02T15:53:19;4.07;;;2.80;;
815;SDS011;25928;51.062;13.752;2023-05-02T15:55:48;3.97;;;3.00;;
815;SDS011;25928;51.062;13.752;2023-05-02T15:58:15;3.00;;;2.80;;